Time;durP1;ratioP1;P1;durP2;ratioP2;P2;SDS_P1;SDS_P2;PMS_P1;PMS_P2;Temp;Humidity;BMP_temperature;BMP_pressure;BME280_temperature;BME280_humidity;BME280_pressure;Samples;Min_cycle;Max_cycle;Signal;HPM_P1;HPM_P2
2022/10/06 00:01:46;;;;;;;;;;;;;;;20.84;50.82;101836.28;5126791;28;19937;-38
2022/10/06 00:04:12;;;;;;;;;;;;;;;20.83;50.78;101837.41;5127525;28;19923;-37
2022/10/06 00:06:38;;;;;;;;;;;;;;;20.83;50.86;101837.41;5125085;28;19952;-38
2022/10/06 00:09:04;;;;;;;;;;;;;;;20.83;50.86;101838.22;5127705;28;19930;-37
2022/10/06 00:11:29;;;;;;;;;;;;;;;20.83;50.88;101841.00;5125165;28;19927;-37
2022/10/06 00:13:55;;;;;;;;;;;;;;;20.84;50.90;101845.41;5125941;28;19945;-38
2022/10/06 00:16:21;;;;;;;;;;;;;;;20.83;50.83;101857.59;5124548;28;19924;-38
2022/10/06 00:18:47;;;;;;;;;;;;;;;20.82;50.92;101853.19;5120407;28;19927;-37
2022/10/06 00:21:12;;;;;;;;;;;;;;;20.83;50.84;101862.31;5106243;28;19924;-37
2022/10/06 00:23:38;;;;;;;;;;;;;;;20.83;50.83;101865.06;5110322;27;19968;-38
2022/10/06 00:26:03;;;;;;;;;;;;;;;20.83;50.73;101871.44;5126520;28;20074;-38
2022/10/06 00:28:29;;;;;;;;;;;;;;;20.83;50.80;101873.38;5105383;28;19962;-37
2022/10/06 00:30:55;;;;;;;;;;;;;;;20.83;50.98;101874.22;5125882;28;20300;-37
2022/10/06 00:33:21;;;;;;;;;;;;;;;20.82;50.74;101875.31;5128269;28;19938;-37
2022/10/06 00:35:46;;;;;;;;;;;;;;;20.82;50.86;101878.09;5125311;28;19938;-38
2022/10/06 00:38:13;;;;;;;;;;;;;;;20.83;50.90;101882.53;5124862;27;19927;-37
2022/10/06 00:40:46;;;;;;;;;;;;;;;20.82;50.82;101880.88;5131511;28;19924;-37
2022/10/06 00:43:32;;;;;;;;;;;;;;;20.84;50.77;101891.66;5111278;28;19997;-37
2022/10/06 00:45:57;;;;;;;;;;;;;;;20.83;50.83;101895.53;5112610;28;20022;-38
2022/10/06 00:48:23;;;;;;;;;;;;;;;20.83;50.74;101906.59;5129641;28;19976;-38
2022/10/06 00:50:49;;;;;;;;;;;;;;;20.82;50.78;101896.66;5125545;28;19927;-38
2022/10/06 00:53:15;;;;;;;;;;;;;;;20.82;50.90;101908.53;5130694;28;20426;-37
2022/10/06 00:55:41;;;;;;;;;;;;;;;20.82;50.75;101916.84;5130175;27;19973;-37
2022/10/06 00:58:07;;;;;;;;;;;;;;;20.84;50.75;101913.81;5130206;28;19927;-37
2022/10/06 01:00:32;;;;;;;;;;;;;;;20.83;50.74;101917.69;5128136;28;19931;-38
2022/10/06 01:03:01;;;;;;;;;;;;;;;20.82;50.73;101916.03;5108079;28;20398;-37
2022/10/06 01:05:28;;;;;;;;;;;;;;;20.83;50.78;101920.44;5110758;28;20377;-38
2022/10/06 01:07:53;;;;;;;;;;;;;;;20.83;50.86;101928.75;5129399;28;19970;-38
2022/10/06 01:10:19;;;;;;;;;;;;;;;20.82;50.83;101919.63;5125095;28;19932;-37
2022/10/06 01:12:44;;;;;;;;;;;;;;;20.83;50.78;101926.81;5129885;28;19932;-37
2022/10/06 01:15:10;;;;;;;;;;;;;;;20.83;50.90;101939.84;5126007;28;20295;-40
2022/10/06 01:17:37;;;;;;;;;;;;;;;20.83;50.83;101937.88;5130791;28;19934;-39
2022/10/06 01:20:04;;;;;;;;;;;;;;;20.82;50.83;101950.06;5094100;28;19931;-37
2022/10/06 01:22:37;;;;;;;;;;;;;;;20.83;50.85;101953.69;5106389;28;19967;-37
2022/10/06 01:25:03;;;;;;;;;;;;;;;20.82;50.80;101950.06;5131446;28;19966;-38
2022/10/06 01:27:29;;;;;;;;;;;;;;;20.82;50.88;101963.91;5112170;28;19979;-38
2022/10/06 01:29:55;;;;;;;;;;;;;;;20.82;50.92;101972.22;5129824;28;19923;-37
2022/10/06 01:32:21;;;;;;;;;;;;;;;20.83;50.68;101967.53;5128872;28;19930;-37
2022/10/06 01:34:47;;;;;;;;;;;;;;;20.82;50.70;101969.44;5109929;28;19971;-38
2022/10/06 01:37:12;;;;;;;;;;;;;;;20.82;50.80;101966.69;5127144;28;20310;-37
2022/10/06 01:39:38;;;;;;;;;;;;;;;20.83;50.81;101962.81;5111640;28;19927;-38
2022/10/06 01:42:03;;;;;;;;;;;;;;;20.83;50.92;101973.88;5130014;28;19923;-37
2022/10/06 01:44:29;;;;;;;;;;;;;;;20.82;50.83;101972.22;5130015;28;19992;-38
2022/10/06 01:46:54;;;;;;;;;;;;;;;20.83;50.92;101973.06;5123630;28;19943;-38
2022/10/06 01:49:20;;;;;;;;;;;;;;;20.83;50.70;101970.28;5129473;27;20341;-37
2022/10/06 01:51:46;;;;;;;;;;;;;;;20.82;50.90;101969.44;5130408;28;19931;-37
2022/10/06 01:54:12;;;;;;;;;;;;;;;20.82;50.74;101969.44;5129320;27;19930;-38
2022/10/06 01:56:37;;;;;;;;;;;;;;;20.82;50.66;101968.63;5112676;28;19934;-38
2022/10/06 01:59:03;;;;;;;;;;;;;;;20.82;50.74;101983.28;5128681;28;20352;-37
2022/10/06 02:01:28;;;;;;;;;;;;;;;20.83;50.78;101990.50;5126801;28;19924;-37
2022/10/06 02:03:54;;;;;;;;;;;;;;;20.83;50.87;101989.66;5127915;28;19941;-38
2022/10/06 02:06:19;;;;;;;;;;;;;;;20.83;50.68;101986.91;5108969;28;20402;-37
2022/10/06 02:08:45;;;;;;;;;;;;;;;20.83;50.74;101995.19;5126505;28;19953;-38
2022/10/06 02:11:11;;;;;;;;;;;;;;;20.82;50.74;101999.91;5130192;28;19946;-38
2022/10/06 02:13:37;;;;;;;;;;;;;;;20.83;50.80;101997.97;5128357;28;19980;-39
2022/10/06 02:16:05;;;;;;;;;;;;;;;20.82;50.62;101999.91;5127129;28;19932;-37
2022/10/06 02:18:32;;;;;;;;;;;;;;;20.83;50.73;102009.88;5105597;28;20027;-36
2022/10/06 02:20:58;;;;;;;;;;;;;;;20.82;50.68;102010.97;5107290;28;20394;-36
2022/10/06 02:23:24;;;;;;;;;;;;;;;20.82;50.76;102013.75;5121449;27;19923;-36
2022/10/06 02:25:56;;;;;;;;;;;;;;;20.82;50.70;102013.75;5109700;28;19931;-37
2022/10/06 02:28:21;;;;;;;;;;;;;;;20.83;50.68;102017.34;5110907;28;20667;-36
2022/10/06 02:30:47;;;;;;;;;;;;;;;20.83;50.80;102022.88;5127276;28;19935;-37
2022/10/06 02:33:12;;;;;;;;;;;;;;;20.82;50.83;102027.59;5127587;28;19923;-36
2022/10/06 02:35:38;;;;;;;;;;;;;;;20.82;50.73;102027.59;5126920;28;19943;-36
2022/10/06 02:38:04;;;;;;;;;;;;;;;20.82;50.84;102030.38;5125249;28;20309;-36
2022/10/06 02:40:29;;;;;;;;;;;;;;;20.82;50.67;102037.84;5125993;28;19931;-36
2022/10/06 02:42:55;;;;;;;;;;;;;;;20.82;50.73;102033.13;5127407;28;19924;-36
2022/10/06 02:45:21;;;;;;;;;;;;;;;20.82;50.93;102040.59;5124761;28;19924;-37
2022/10/06 02:47:46;;;;;;;;;;;;;;;20.82;50.68;102049.75;5126814;28;19931;-36
2022/10/06 02:50:12;;;;;;;;;;;;;;;20.82;50.71;102048.91;5125662;28;19932;-37
2022/10/06 02:52:39;;;;;;;;;;;;;;;20.82;50.73;102054.44;5123803;28;19923;-37
2022/10/06 02:55:05;;;;;;;;;;;;;;;20.81;50.79;102056.34;5128083;27;19969;-37
2022/10/06 02:57:31;;;;;;;;;;;;;;;20.82;50.69;102051.69;5126407;28;19931;-37
2022/10/06 02:59:56;;;;;;;;;;;;;;;20.83;50.62;102064.41;5129625;28;19935;-38
2022/10/06 03:02:22;;;;;;;;;;;;;;;20.82;50.69;102068.28;5126793;27;20395;-37
2022/10/06 03:04:48;;;;;;;;;;;;;;;20.82;50.70;102060.00;5126418;28;19923;-37
2022/10/06 03:07:14;;;;;;;;;;;;;;;20.82;50.66;102062.75;5125185;28;20412;-37
2022/10/06 03:09:39;;;;;;;;;;;;;;;20.82;50.82;102073.84;5106640;28;19931;-38
2022/10/06 03:12:05;;;;;;;;;;;;;;;20.82;50.83;102077.44;5124454;28;19924;-37
2022/10/06 03:14:31;;;;;;;;;;;;;;;20.82;50.79;102084.91;5122499;28;19923;-37
2022/10/06 03:16:56;;;;;;;;;;;;;;;20.82;50.67;102080.19;5120517;28;19927;-37
2022/10/06 03:19:22;;;;;;;;;;;;;;;20.82;50.79;102085.75;5128991;28;19927;-37
2022/10/06 03:21:48;;;;;;;;;;;;;;;20.81;50.70;102092.34;5112739;27;19930;-38
2022/10/06 03:24:13;;;;;;;;;;;;;;;20.82;50.69;102101.53;5128813;28;19984;-38
2022/10/06 03:26:39;;;;;;;;;;;;;;;20.82;50.80;102105.13;5128473;28;19923;-37
2022/10/06 03:29:05;;;;;;;;;;;;;;;20.82;50.68;102109.81;5111248;28;19998;-38
2022/10/06 03:31:36;;;;;;;;;;;;;;;20.82;50.63;102118.97;5108396;28;20010;-38
2022/10/06 03:34:02;;;;;;;;;;;;;;;20.82;50.69;102113.41;5106918;28;20026;-38
2022/10/06 03:36:28;;;;;;;;;;;;;;;20.82;50.69;102121.72;5124704;28;19924;-38
2022/10/06 03:38:54;;;;;;;;;;;;;;;20.82;50.57;102132.81;5126099;28;20426;-37
2022/10/06 03:41:22;;;;;;;;;;;;;;;20.82;50.61;102137.50;5126094;28;19943;-37
2022/10/06 03:43:48;;;;;;;;;;;;;;;20.82;50.97;102145.81;5129323;28;20002;-38
2022/10/06 03:46:15;;;;;;;;;;;;;;;20.82;50.68;102143.88;5107257;28;20016;-38
2022/10/06 03:48:41;;;;;;;;;;;;;;;20.82;50.78;102159.66;5110157;28;19931;-37
2022/10/06 03:51:08;;;;;;;;;;;;;;;20.81;50.74;102156.03;5128020;28;19923;-38
2022/10/06 03:53:35;;;;;;;;;;;;;;;20.82;50.61;102159.66;5108507;28;19961;-37
2022/10/06 03:56:10;;;;;;;;;;;;;;;20.82;50.76;102165.19;5126884;27;19970;-37
2022/10/06 03:58:36;;;;;;;;;;;;;;;20.82;50.60;102162.44;5124733;28;20439;-38
2022/10/06 04:01:14;;;;;;;;;;;;;;;20.80;50.95;102171.81;5110813;28;20031;-37
2022/10/06 04:03:39;;;;;;;;;;;;;;;20.81;50.67;102175.41;5128330;28;20018;-37
2022/10/06 04:06:05;;;;;;;;;;;;;;;20.81;50.69;102172.63;5106174;28;19976;-37
2022/10/06 04:08:32;;;;;;;;;;;;;;;20.82;50.80;102179.03;5109298;28;19974;-37
2022/10/06 04:11:06;;;;;;;;;;;;;;;20.82;50.68;102184.56;5105608;28;19931;-37
2022/10/06 04:13:32;;;;;;;;;;;;;;;20.82;50.52;102190.13;5105760;28;19986;-37
2022/10/06 04:15:57;;;;;;;;;;;;;;;20.82;50.70;102192.88;5106734;28;19939;-37
2022/10/06 04:18:23;;;;;;;;;;;;;;;20.81;50.61;102192.03;5130681;28;20394;-38
2022/10/06 04:20:48;;;;;;;;;;;;;;;20.82;50.62;102192.88;5129327;27;20312;-38
2022/10/06 04:23:15;;;;;;;;;;;;;;;20.80;50.75;102207.81;5129153;28;19923;-37
2022/10/06 04:25:40;;;;;;;;;;;;;;;20.82;50.76;102210.31;5132018;28;20419;-37
2022/10/06 04:28:06;;;;;;;;;;;;;;;20.81;50.69;102208.63;5111978;28;19923;-37
2022/10/06 04:30:31;;;;;;;;;;;;;;;20.81;50.85;102208.63;5111665;28;20528;-38
2022/10/06 04:32:57;;;;;;;;;;;;;;;20.81;50.77;102216.94;5125648;28;19927;-37
2022/10/06 04:35:22;;;;;;;;;;;;;;;20.81;50.45;102228.00;5130879;28;19976;-37
2022/10/06 04:37:48;;;;;;;;;;;;;;;20.81;50.80;102219.72;5129323;28;19935;-38
2022/10/06 04:40:14;;;;;;;;;;;;;;;20.81;50.68;102233.56;5114195;28;20382;-37
2022/10/06 04:42:40;;;;;;;;;;;;;;;20.80;50.69;102224.41;5129974;28;19923;-37
2022/10/06 04:45:06;;;;;;;;;;;;;;;20.82;50.61;102228.88;5127401;28;19935;-38
2022/10/06 04:47:31;;;;;;;;;;;;;;;20.81;50.71;102233.56;5123111;28;19943;-38
2022/10/06 04:49:57;;;;;;;;;;;;;;;20.81;50.70;102233.56;5126465;28;19928;-37
2022/10/06 04:52:22;;;;;;;;;;;;;;;20.81;50.78;102244.63;5129100;28;19972;-38
2022/10/06 04:54:48;;;;;;;;;;;;;;;20.80;50.68;102241.03;5131661;28;19931;-37
2022/10/06 04:57:13;;;;;;;;;;;;;;;20.82;50.66;102253.78;5129333;28;19923;-38
2022/10/06 05:02:33;;;;;;;;;;;;;;;20.80;50.59;102254.88;5116062;28;19952;-38
2022/10/06 05:04:58;;;;;;;;;;;;;;;20.80;50.62;102263.19;5129457;28;20128;-37
2022/10/06 05:07:24;;;;;;;;;;;;;;;20.80;50.60;102270.66;5128834;28;19938;-37
2022/10/06 05:09:49;;;;;;;;;;;;;;;20.80;50.64;102265.09;5127167;28;19932;-38
2022/10/06 05:12:15;;;;;;;;;;;;;;;20.80;50.63;102279.78;5131124;28;19924;-37
2022/10/06 05:14:40;;;;;;;;;;;;;;;20.80;50.72;102278.97;5130845;28;19931;-38
2022/10/06 05:17:06;;;;;;;;;;;;;;;20.81;50.74;102286.16;5127438;28;19923;-37
2022/10/06 05:19:32;;;;;;;;;;;;;;;20.80;50.83;102285.31;5128985;27;20314;-38
2022/10/06 05:21:57;;;;;;;;;;;;;;;20.80;50.59;102295.56;5131082;27;19942;-38
2022/10/06 05:24:23;;;;;;;;;;;;;;;20.80;50.70;102299.16;5127590;27;19928;-38
2022/10/06 05:26:48;;;;;;;;;;;;;;;20.80;50.65;102306.63;5131200;27;19927;-38
2022/10/06 05:29:14;;;;;;;;;;;;;;;20.80;50.58;102304.69;5131687;28;19948;-37
2022/10/06 05:31:42;;;;;;;;;;;;;;;20.81;50.59;102316.63;5124397;28;19930;-37
2022/10/06 05:34:07;;;;;;;;;;;;;;;20.80;50.65;102309.41;5127768;28;19932;-38
2022/10/06 05:36:33;;;;;;;;;;;;;;;20.80;50.78;102310.25;5128330;28;19923;-38
2022/10/06 05:38:59;;;;;;;;;;;;;;;20.80;50.64;102314.94;5112169;28;19923;-38
2022/10/06 05:41:25;;;;;;;;;;;;;;;20.80;50.64;102324.09;5111558;28;19931;-38
2022/10/06 05:43:51;;;;;;;;;;;;;;;20.80;50.64;102328.78;5112110;28;20002;-38
2022/10/06 05:46:19;;;;;;;;;;;;;;;20.80;50.70;102337.09;5108871;28;19942;-38
2022/10/06 05:48:45;;;;;;;;;;;;;;;20.80;50.73;102331.56;5111091;28;19924;-37
2022/10/06 05:51:11;;;;;;;;;;;;;;;20.79;50.68;102344.56;5110729;28;19958;-38
2022/10/06 05:53:37;;;;;;;;;;;;;;;20.80;50.70;102348.16;5111178;28;19928;-37
2022/10/06 05:56:06;;;;;;;;;;;;;;;20.80;50.79;102353.72;5108712;28;20268;-37
2022/10/06 05:58:32;;;;;;;;;;;;;;;20.79;50.67;102355.66;5112123;28;20010;-37
2022/10/06 06:03:41;;;;;;;;;;;;;;;20.79;50.73;102363.94;5175898;27;19926;-35
2022/10/06 06:06:21;;;;;;;;;;;;;;;20.80;50.75;102368.38;5171819;27;20299;-35
2022/10/06 06:08:47;;;;;;;;;;;;;;;20.79;50.79;102369.50;5170396;27;19981;-37
2022/10/06 06:11:13;;;;;;;;;;;;;;;20.80;50.64;102373.94;5152162;27;19927;-38
2022/10/06 06:13:38;;;;;;;;;;;;;;;20.80;50.53;102373.94;5153120;27;19947;-38
2022/10/06 06:16:05;;;;;;;;;;;;;;;20.79;50.68;102383.34;5148903;27;19936;-37
2022/10/06 06:18:31;;;;;;;;;;;;;;;20.78;50.77;102373.34;5177739;27;19970;-37
2022/10/06 06:20:58;;;;;;;;;;;;;;;20.80;50.61;102381.41;5170960;27;19923;-38
2022/10/06 06:23:24;;;;;;;;;;;;;;;20.80;50.88;102384.16;5154491;27;20221;-38
2022/10/06 06:25:57;;;;;;;;;;;;;;;20.80;50.62;102389.69;5173958;27;19965;-37
2022/10/06 06:28:28;;;;;;;;;;;;;;;20.80;50.78;102400.78;5173395;27;19922;-38
2022/10/06 06:31:10;;;;;;;;;;;;;;;20.79;50.58;102399.94;5173236;27;19933;-38
2022/10/06 06:33:40;;;;;;;;;;;;;;;20.80;50.63;102400.78;5163732;27;19922;-37
2022/10/06 06:36:13;;;;;;;;;;;;;;;20.79;50.58;102404.66;5151142;27;20385;-38
2022/10/06 06:38:39;;;;;;;;;;;;;;;20.79;50.65;102408.25;5151084;27;19989;-38
2022/10/06 06:41:11;;;;;;;;;;;;;;;20.80;50.61;102409.91;5170607;27;20073;-37
2022/10/06 06:43:37;;;;;;;;;;;;;;;20.78;50.78;102417.66;5175846;27;19974;-37
2022/10/06 06:46:03;;;;;;;;;;;;;;;20.79;50.63;102419.31;5169733;27;19934;-38
2022/10/06 06:48:28;;;;;;;;;;;;;;;20.79;50.69;102427.63;5142858;27;19931;-37
2022/10/06 06:50:56;;;;;;;;;;;;;;;20.79;50.67;102435.94;5150389;27;20397;-38
2022/10/06 06:53:21;;;;;;;;;;;;;;;20.80;50.56;102434.00;5151697;27;20014;-37
2022/10/06 06:55:49;;;;;;;;;;;;;;;20.79;50.68;102435.09;5136395;27;19930;-37
2022/10/06 06:58:14;;;;;;;;;;;;;;;20.79;50.70;102435.94;5153167;27;19971;-38
2022/10/06 07:00:40;;;;;;;;;;;;;;;20.80;50.65;102434.00;5147408;27;20266;-38
2022/10/06 07:03:06;;;;;;;;;;;;;;;20.78;50.65;102437.03;5153968;27;19968;-37
2022/10/06 07:05:31;;;;;;;;;;;;;;;20.80;50.69;102448.69;5154043;27;19931;-38
2022/10/06 07:07:57;;;;;;;;;;;;;;;20.81;50.54;102449.53;5147886;27;20647;-38
2022/10/06 07:10:22;;;;;;;;;;;;;;;20.79;50.71;102452.56;5150887;27;19995;-37
2022/10/06 07:12:48;;;;;;;;;;;;;;;20.80;50.59;102461.69;5151249;27;19923;-37
2022/10/06 07:26:17;;;;;;;;;;;;;;;20.79;50.68;102483.00;5120728;27;19959;-37
2022/10/06 07:28:43;;;;;;;;;;;;;;;20.80;50.65;102494.91;5145467;27;19931;-37
2022/10/06 07:31:08;;;;;;;;;;;;;;;20.78;50.61;102495.19;5138988;27;19923;-37
2022/10/06 07:33:34;;;;;;;;;;;;;;;20.79;50.60;102504.31;5144905;27;19949;-37
2022/10/06 07:36:01;;;;;;;;;;;;;;;20.79;50.70;102504.31;5132471;27;20302;-37
2022/10/06 07:38:28;;;;;;;;;;;;;;;20.80;50.59;102506.00;5133955;27;20014;-38
2022/10/06 07:40:54;;;;;;;;;;;;;;;20.79;50.56;102504.31;5134475;27;19955;-37
2022/10/06 07:43:39;;;;;;;;;;;;;;;20.79;50.53;102523.72;5103800;27;20440;-38
2022/10/06 07:46:09;;;;;;;;;;;;;;;20.79;50.61;102524.53;5131783;27;19931;-37
2022/10/06 07:48:36;;;;;;;;;;;;;;;20.79;50.50;102520.94;5134077;27;20423;-37
2022/10/06 07:51:05;;;;;;;;;;;;;;;20.79;50.65;102529.25;5133838;27;19985;-38
2022/10/06 07:53:31;;;;;;;;;;;;;;;20.78;50.52;102525.63;5120233;27;20002;-37
2022/10/06 07:56:02;;;;;;;;;;;;;;;20.79;50.59;102532.84;5136636;27;20303;-37
2022/10/06 07:58:27;;;;;;;;;;;;;;;20.79;50.63;102534.78;5137729;27;20033;-37
2022/10/06 08:00:53;;;;;;;;;;;;;;;20.79;50.70;102535.63;5136297;27;19923;-38
2022/10/06 08:03:19;;;;;;;;;;;;;;;20.79;50.65;102543.09;5138070;27;20395;-37
2022/10/06 08:05:45;;;;;;;;;;;;;;;20.78;50.61;102545.03;5118452;27;19924;-37
2022/10/06 08:08:10;;;;;;;;;;;;;;;20.78;50.83;102545.03;5132320;27;19939;-37
2022/10/06 08:10:36;;;;;;;;;;;;;;;20.79;50.52;102551.41;5120194;27;19924;-37
2022/10/06 08:13:05;;;;;;;;;;;;;;;20.79;50.76;102552.22;5138489;27;20274;-37
2022/10/06 08:15:30;;;;;;;;;;;;;;;20.78;50.65;102553.31;5117984;27;19970;-38
2022/10/06 08:17:58;;;;;;;;;;;;;;;20.78;50.58;102553.31;5136933;27;19923;-38
2022/10/06 08:20:23;;;;;;;;;;;;;;;20.79;50.78;102563.31;5132281;27;20474;-38
2022/10/06 08:22:49;;;;;;;;;;;;;;;20.78;50.62;102553.31;5139923;27;19931;-37
2022/10/06 08:25:15;;;;;;;;;;;;;;;20.79;50.50;102560.53;5136182;27;19931;-37
2022/10/06 08:27:43;;;;;;;;;;;;;;;20.79;50.64;102562.47;5135441;27;20367;-37
2022/10/06 08:30:08;;;;;;;;;;;;;;;20.79;50.55;102568.84;5136349;27;19959;-38
2022/10/06 08:32:34;;;;;;;;;;;;;;;20.79;50.55;102576.31;5133411;27;19934;-37
2022/10/06 08:34:59;;;;;;;;;;;;;;;20.80;50.72;102584.34;5132592;27;19976;-38
2022/10/06 08:37:26;;;;;;;;;;;;;;;20.78;50.69;102575.47;5116769;27;20373;-37
2022/10/06 08:39:51;;;;;;;;;;;;;;;20.78;50.56;102581.03;5119960;27;19959;-37
2022/10/06 08:42:21;;;;;;;;;;;;;;;20.79;50.65;102579.91;5136222;27;19931;-38
2022/10/06 08:44:47;;;;;;;;;;;;;;;20.78;50.46;102581.03;5135084;27;20021;-39
2022/10/06 08:47:17;;;;;;;;;;;;;;;20.79;50.56;102568.00;5129873;27;19977;-37
2022/10/06 08:49:43;;;;;;;;;;;;;;;20.78;50.57;102577.41;5133084;27;20046;-38
2022/10/06 08:52:29;;;;;;;;;;;;;;;20.79;50.70;102581.84;5115655;27;19974;-37
2022/10/06 08:55:14;;;;;;;;;;;;;;;20.77;50.65;102582.13;5118548;27;19958;-37
2022/10/06 08:57:43;;;;;;;;;;;;;;;20.78;50.51;102589.31;5124358;27;19970;-37
2022/10/06 09:00:11;;;;;;;;;;;;;;;20.78;50.51;102594.88;5132758;27;21156;-37
2022/10/06 09:02:37;;;;;;;;;;;;;;;20.79;50.62;102601.22;5114424;27;20017;-38
2022/10/06 09:05:04;;;;;;;;;;;;;;;20.78;50.61;102594.03;5133461;27;19924;-37
2022/10/06 09:07:35;;;;;;;;;;;;;;;20.78;50.80;102605.94;5135571;27;19963;-38
2022/10/06 09:12:44;;;;;;;;;;;;;;;20.78;50.55;102608.72;5169333;27;19925;-35
2022/10/06 09:15:20;;;;;;;;;;;;;;;20.78;50.57;102611.47;5125950;27;20169;-35
2022/10/06 09:17:48;;;;;;;;;;;;;;;20.79;50.77;102615.06;5146338;27;20014;-35
2022/10/06 09:20:19;;;;;;;;;;;;;;;20.78;50.58;102619.78;5146918;27;19965;-38
2022/10/06 09:22:45;;;;;;;;;;;;;;;20.78;50.67;102624.47;5129351;27;19958;-38
2022/10/06 09:25:14;;;;;;;;;;;;;;;20.77;50.60;102623.66;5149789;27;19962;-37
2022/10/06 09:27:39;;;;;;;;;;;;;;;20.78;50.56;102628.09;5127234;27;20545;-38
2022/10/06 09:30:06;;;;;;;;;;;;;;;20.78;50.61;102624.47;5145993;27;19943;-38
2022/10/06 09:32:32;;;;;;;;;;;;;;;20.78;50.54;102633.63;5144463;27;19967;-37
2022/10/06 09:34:58;;;;;;;;;;;;;;;20.78;50.51;102633.63;5150291;27;19923;-37
2022/10/06 09:37:24;;;;;;;;;;;;;;;20.78;50.55;102636.41;5148591;27;20339;-38
2022/10/06 09:39:50;;;;;;;;;;;;;;;20.77;50.65;102631.13;5145395;27;20052;-38
2022/10/06 09:42:18;;;;;;;;;;;;;;;20.78;50.60;102635.56;5129813;27;20426;-38
2022/10/06 09:45:05;;;;;;;;;;;;;;;20.78;50.49;102641.94;5127002;27;20007;-38
2022/10/06 09:50:20;;;;;;;;;;;;;;;20.77;50.61;102637.50;5161981;27;19925;-37
2022/10/06 09:53:06;;;;;;;;;;;;;;;20.78;50.63;102644.69;5136062;27;19966;-38
2022/10/06 09:55:33;;;;;;;;;;;;;;;20.77;50.63;102656.88;5139758;27;19977;-37
2022/10/06 09:57:58;;;;;;;;;;;;;;;20.78;50.75;102643.88;5148689;27;19969;-38
2022/10/06 10:00:28;;;;;;;;;;;;;;;20.78;50.87;102647.47;5143016;27;19963;-38
2022/10/06 10:02:55;;;;;;;;;;;;;;;20.78;50.71;102641.09;5152072;27;19981;-38
2022/10/06 10:05:21;;;;;;;;;;;;;;;20.77;50.52;102642.19;5129861;27;20029;-37
2022/10/06 10:07:46;;;;;;;;;;;;;;;20.78;50.47;102641.09;5151990;27;20004;-38
2022/10/06 10:10:20;;;;;;;;;;;;;;;20.78;50.47;102641.09;5150732;27;19983;-38
2022/10/06 10:15:32;;;;;;;;;;;;;;;20.78;50.62;102646.63;5172771;27;19929;-35
2022/10/06 10:18:01;;;;;;;;;;;;;;;20.78;50.48;102643.88;5151069;27;20006;-35
2022/10/06 10:20:30;;;;;;;;;;;;;;;20.77;50.55;102642.19;5167927;27;19969;-35
2022/10/06 10:22:57;;;;;;;;;;;;;;;20.78;50.67;102641.09;5154875;27;19977;-37
2022/10/06 10:25:43;;;;;;;;;;;;;;;20.79;50.63;102642.78;5175190;27;20372;-38
2022/10/06 10:28:16;;;;;;;;;;;;;;;20.78;50.66;102646.63;5159231;27;19967;-37
2022/10/06 10:30:59;;;;;;;;;;;;;;;20.78;50.55;102646.63;5153433;27;19930;-38
2022/10/06 10:33:35;;;;;;;;;;;;;;;20.77;50.49;102648.56;5172409;27;19923;-38
2022/10/06 10:36:00;;;;;;;;;;;;;;;20.78;50.57;102649.41;5168436;27;20137;-37
2022/10/06 10:38:27;;;;;;;;;;;;;;;20.78;50.55;102653.00;5166357;27;19946;-38
2022/10/06 10:40:58;;;;;;;;;;;;;;;20.78;50.49;102649.41;5173100;27;19935;-37
2022/10/06 10:43:26;;;;;;;;;;;;;;;20.78;50.45;102654.94;5178033;27;19981;-37
2022/10/06 10:45:54;;;;;;;;;;;;;;;20.77;50.57;102648.56;5149154;27;19957;-37
2022/10/06 10:48:26;;;;;;;;;;;;;;;20.78;50.49;102652.16;5160507;27;19979;-38
2022/10/06 10:50:56;;;;;;;;;;;;;;;20.77;50.62;102645.81;5167387;27;20018;-38
2022/10/06 10:53:31;;;;;;;;;;;;;;;20.77;50.54;102651.34;5170697;27;19970;-38
2022/10/06 10:55:58;;;;;;;;;;;;;;;20.77;50.71;102648.56;5159343;27;20388;-38
2022/10/06 10:58:33;;;;;;;;;;;;;;;20.77;50.67;102654.09;5160722;27;19959;-37
2022/10/06 11:01:08;;;;;;;;;;;;;;;20.77;50.55;102650.50;5141398;27;19963;-38
2022/10/06 11:03:34;;;;;;;;;;;;;;;20.78;50.49;102652.16;5154380;27;19946;-38
2022/10/06 11:06:08;;;;;;;;;;;;;;;20.77;50.62;102645.81;5157915;27;20383;-37
2022/10/06 11:08:36;;;;;;;;;;;;;;;20.78;50.64;102652.16;5153375;27;19951;-38
2022/10/06 11:11:03;;;;;;;;;;;;;;;20.78;50.55;102657.72;5152448;27;20384;-38
2022/10/06 11:13:32;;;;;;;;;;;;;;;20.77;50.58;102654.09;5138128;27;20065;-38
2022/10/06 11:16:09;;;;;;;;;;;;;;;20.78;50.69;102654.94;5156565;27;19954;-38
2022/10/06 11:18:56;;;;;;;;;;;;;;;20.77;50.40;102656.88;5155494;27;19923;-37
2022/10/06 11:21:22;;;;;;;;;;;;;;;20.78;50.54;102663.25;5141783;27;19966;-38
2022/10/06 11:24:08;;;;;;;;;;;;;;;20.77;50.70;102665.19;5137466;27;20034;-37
2022/10/06 11:26:38;;;;;;;;;;;;;;;20.77;50.48;102654.09;5129114;27;20455;-38
2022/10/06 11:29:08;;;;;;;;;;;;;;;20.77;50.69;102658.81;5139844;27;19959;-37
2022/10/06 11:31:39;;;;;;;;;;;;;;;20.77;50.49;102659.66;5144357;27;19974;-38
2022/10/06 11:34:05;;;;;;;;;;;;;;;20.78;50.69;102666.00;5142227;27;19923;-37
2022/10/06 11:36:50;;;;;;;;;;;;;;;20.78;50.43;102657.72;5143063;27;19959;-38
2022/10/06 11:39:19;;;;;;;;;;;;;;;20.78;50.48;102653.00;5121629;27;19928;-37
2022/10/06 11:41:48;;;;;;;;;;;;;;;20.77;50.57;102658.81;5143203;27;20022;-37
2022/10/06 11:44:17;;;;;;;;;;;;;;;20.78;50.56;102663.25;5139260;27;20010;-37
2022/10/06 11:46:45;;;;;;;;;;;;;;;20.78;50.50;102657.72;5138435;27;20010;-37
2022/10/06 11:49:31;;;;;;;;;;;;;;;20.78;50.49;102650.25;5139352;27;20375;-37
2022/10/06 11:52:16;;;;;;;;;;;;;;;20.77;50.55;102656.88;5126881;27;19923;-38
2022/10/06 11:54:45;;;;;;;;;;;;;;;20.77;50.58;102651.34;5127265;27;20013;-37
2022/10/06 11:57:28;;;;;;;;;;;;;;;20.77;50.57;102647.72;5142052;27;19963;-37
2022/10/06 12:00:06;;;;;;;;;;;;;;;20.77;50.42;102647.72;5141516;27;20210;-38
2022/10/06 12:07:54;;;;;;;;;;;;;;;20.77;50.58;102654.09;5167870;27;19945;-37
2022/10/06 12:13:21;;;;;;;;;;;;;;;20.78;50.55;102632.78;5172671;27;19937;-35
2022/10/06 12:16:27;;;;;;;;;;;;;;;20.77;50.56;102629.19;5121902;27;19991;-35
2022/10/06 12:19:18;;;;;;;;;;;;;;;20.77;50.61;102631.13;5137613;27;19924;-35
2022/10/06 12:21:49;;;;;;;;;;;;;;;20.77;50.56;102637.50;5137187;27;19923;-35
2022/10/06 12:24:35;;;;;;;;;;;;;;;20.77;50.70;102629.19;5139520;27;19977;-35
2022/10/06 12:27:06;;;;;;;;;;;;;;;20.78;50.49;102627.25;5141072;27;20372;-35
2022/10/06 12:29:49;;;;;;;;;;;;;;;20.78;50.54;102630.03;5167278;27;20390;-35
2022/10/06 12:32:20;;;;;;;;;;;;;;;20.77;50.48;102629.19;5143285;27;19962;-35
2022/10/06 12:35:06;;;;;;;;;;;;;;;20.77;50.55;102625.59;5152338;27;19958;-35
2022/10/06 12:37:33;;;;;;;;;;;;;;;20.77;50.58;102631.97;5137200;27;19974;-37
2022/10/06 12:40:19;;;;;;;;;;;;;;;20.77;50.55;102622.81;5154758;27;19969;-37
2022/10/06 12:42:44;;;;;;;;;;;;;;;20.78;50.54;102616.19;5140636;27;19974;-37
2022/10/06 12:45:12;;;;;;;;;;;;;;;20.78;50.61;102619.78;5150532;27;20310;-38
2022/10/06 12:47:39;;;;;;;;;;;;;;;20.77;50.63;102620.88;5155578;27;19958;-38
2022/10/06 12:50:21;;;;;;;;;;;;;;;20.77;50.57;102618.09;5154821;27;20477;-38
2022/10/06 12:52:52;;;;;;;;;;;;;;;20.78;50.55;102621.72;5158726;27;19954;-37
2022/10/06 12:55:27;;;;;;;;;;;;;;;20.78;50.57;102619.78;5156935;27;20389;-38
2022/10/06 12:57:53;;;;;;;;;;;;;;;20.76;50.63;102619.19;5130473;27;19927;-38
2022/10/06 13:00:22;;;;;;;;;;;;;;;20.77;50.69;102611.75;5147181;27;19969;-38
2022/10/06 13:02:48;;;;;;;;;;;;;;;20.78;50.48;102607.88;5149837;27;19931;-38
2022/10/06 13:05:14;;;;;;;;;;;;;;;20.78;50.49;102613.41;5155885;27;19973;-38
2022/10/06 13:07:56;;;;;;;;;;;;;;;20.78;50.65;102613.41;5147381;27;20283;-38
2022/10/06 13:10:22;;;;;;;;;;;;;;;20.78;50.60;102607.88;5126165;27;20046;-38
2022/10/06 13:12:49;;;;;;;;;;;;;;;20.77;50.53;102615.34;5127980;27;19971;-37
2022/10/06 13:15:17;;;;;;;;;;;;;;;20.78;50.75;102607.88;5130352;27;20017;-37